sensor_id;sensor_type;location;lat;lon;timestamp;P1;durP1;ratioP1;P2;durP2;ratioP2
25327;SDS011;13279;51.300;12.394;2023-05-07T00:00:42;15.83;;;9.93;;
25327;SDS011;13279;51.300;12.394;2023-05-07T00:03:28;16.40;;;9.90;;
25327;SDS011;13279;51.300;12.394;2023-05-07T00:06:00;14.43;;;10.03;;
25327;SDS011;13279;51.300;12.394;2023-05-07T00:08:50;14.17;;;9.27;;
25327;SDS011;13279;51.300;12.394;2023-05-07T00:11:39;17.63;;;9.10;;
25327;SDS011;13279;51.300;12.394;2023-05-07T00:14:26;13.80;;;8.60;;
25327;SDS011;13279;51.300;12.394;2023-05-07T00:17:06;13.73;;;8.70;;
25327;SDS011;13279;51.300;12.394;2023-05-07T00:19:58;15.23;;;9.03;;
25327;SDS011;13279;51.300;12.394;2023-05-07T00:22:38;14.80;;;9.23;;
25327;SDS011;13279;51.300;12.394;2023-05-07T00:28:25;12.20;;;8.70;;
25327;SDS011;13279;51.300;12.394;2023-05-07T00:31:07;13.20;;;8.77;;
25327;SDS011;13279;51.300;12.394;2023-05-07T00:33:54;14.23;;;8.40;;
25327;SDS011;13279;51.300;12.394;2023-05-07T00:36:37;11.43;;;8.67;;
25327;SDS011;13279;51.300;12.394;2023-05-07T00:39:16;17.10;;;8.60;;
25327;SDS011;13279;51.300;12.394;2023-05-07T00:41:49;15.00;;;8.10;;
25327;SDS011;13279;51.300;12.394;2023-05-07T00:44:46;12.97;;;8.97;;
25327;SDS011;13279;51.300;12.394;2023-05-07T00:54:19;10.40;;;7.87;;
25327;SDS011;13279;51.300;12.394;2023-05-07T00:57:22;10.90;;;8.07;;
25327;SDS011;13279;51.300;12.394;2023-05-07T01:00:01;14.27;;;9.17;;
25327;SDS011;13279;51.300;12.394;2023-05-07T01:02:51;13.70;;;8.27;;
25327;SDS011;13279;51.300;12.394;2023-05-07T01:05:37;13.93;;;8.30;;
25327;SDS011;13279;51.300;12.394;2023-05-07T01:08:48;17.07;;;9.40;;
25327;SDS011;13279;51.300;12.394;2023-05-07T01:11:32;14.60;;;9.00;;
25327;SDS011;13279;51.300;12.394;2023-05-07T01:14:34;15.17;;;8.73;;
25327;SDS011;13279;51.300;12.394;2023-05-07T01:17:07;17.57;;;9.53;;
25327;SDS011;13279;51.300;12.394;2023-05-07T01:20:06;16.80;;;9.50;;
25327;SDS011;13279;51.300;12.394;2023-05-07T01:26:24;16.07;;;9.70;;
25327;SDS011;13279;51.300;12.394;2023-05-07T01:29:16;17.37;;;10.83;;
25327;SDS011;13279;51.300;12.394;2023-05-07T01:31:59;20.97;;;10.03;;
25327;SDS011;13279;51.300;12.394;2023-05-07T01:34:40;15.47;;;10.37;;
25327;SDS011;13279;51.300;12.394;2023-05-07T01:37:23;16.87;;;10.20;;
25327;SDS011;13279;51.300;12.394;2023-05-07T01:40:11;18.23;;;10.37;;
25327;SDS011;13279;51.300;12.394;2023-05-07T01:42:55;15.40;;;10.77;;
25327;SDS011;13279;51.300;12.394;2023-05-07T01:46:02;15.07;;;10.47;;
25327;SDS011;13279;51.300;12.394;2023-05-07T01:48:54;20.80;;;10.80;;
25327;SDS011;13279;51.300;12.394;2023-05-07T01:52:06;17.57;;;11.03;;
25327;SDS011;13279;51.300;12.394;2023-05-07T01:54:54;17.10;;;10.30;;
25327;SDS011;13279;51.300;12.394;2023-05-07T02:00:54;19.43;;;11.40;;
25327;SDS011;13279;51.300;12.394;2023-05-07T02:03:39;17.17;;;12.13;;
25327;SDS011;13279;51.300;12.394;2023-05-07T02:06:22;22.27;;;11.60;;
25327;SDS011;13279;51.300;12.394;2023-05-07T02:09:03;20.30;;;12.40;;
25327;SDS011;13279;51.300;12.394;2023-05-07T02:11:49;24.67;;;12.77;;
25327;SDS011;13279;51.300;12.394;2023-05-07T02:18:03;24.73;;;15.17;;
25327;SDS011;13279;51.300;12.394;2023-05-07T02:20:44;24.43;;;14.30;;
25327;SDS011;13279;51.300;12.394;2023-05-07T02:23:21;27.50;;;14.73;;
25327;SDS011;13279;51.300;12.394;2023-05-07T02:26:08;26.77;;;15.30;;
25327;SDS011;13279;51.300;12.394;2023-05-07T02:28:41;24.30;;;14.43;;
25327;SDS011;13279;51.300;12.394;2023-05-07T02:31:18;27.00;;;15.57;;
25327;SDS011;13279;51.300;12.394;2023-05-07T02:33:52;28.33;;;16.30;;
25327;SDS011;13279;51.300;12.394;2023-05-07T02:36:43;26.27;;;15.60;;
25327;SDS011;13279;51.300;12.394;2023-05-07T02:39:32;23.90;;;15.13;;
25327;SDS011;13279;51.300;12.394;2023-05-07T02:42:09;23.77;;;15.67;;
25327;SDS011;13279;51.300;12.394;2023-05-07T02:44:55;22.53;;;14.37;;
25327;SDS011;13279;51.300;12.394;2023-05-07T02:47:41;24.40;;;14.73;;
25327;SDS011;13279;51.300;12.394;2023-05-07T02:50:30;27.00;;;15.90;;
25327;SDS011;13279;51.300;12.394;2023-05-07T02:53:21;24.07;;;15.73;;
25327;SDS011;13279;51.300;12.394;2023-05-07T02:56:02;22.47;;;14.87;;
25327;SDS011;13279;51.300;12.394;2023-05-07T02:58:37;29.43;;;16.03;;
25327;SDS011;13279;51.300;12.394;2023-05-07T03:01:38;21.63;;;14.17;;
25327;SDS011;13279;51.300;12.394;2023-05-07T03:04:12;26.80;;;16.37;;
25327;SDS011;13279;51.300;12.394;2023-05-07T03:07:02;20.37;;;13.53;;
25327;SDS011;13279;51.300;12.394;2023-05-07T03:09:32;22.30;;;15.30;;
25327;SDS011;13279;51.300;12.394;2023-05-07T03:12:11;22.30;;;15.23;;
25327;SDS011;13279;51.300;12.394;2023-05-07T03:14:47;25.30;;;15.40;;
25327;SDS011;13279;51.300;12.394;2023-05-07T03:17:30;23.87;;;15.03;;
25327;SDS011;13279;51.300;12.394;2023-05-07T03:20:46;23.03;;;14.47;;
25327;SDS011;13279;51.300;12.394;2023-05-07T03:23:25;22.40;;;13.40;;
25327;SDS011;13279;51.300;12.394;2023-05-07T03:26:03;23.13;;;13.87;;
25327;SDS011;13279;51.300;12.394;2023-05-07T03:28:40;19.40;;;13.47;;
25327;SDS011;13279;51.300;12.394;2023-05-07T03:31:35;22.27;;;14.53;;
25327;SDS011;13279;51.300;12.394;2023-05-07T03:34:42;20.67;;;14.17;;
25327;SDS011;13279;51.300;12.394;2023-05-07T03:37:33;23.67;;;14.90;;
25327;SDS011;13279;51.300;12.394;2023-05-07T03:40:38;20.80;;;13.60;;
25327;SDS011;13279;51.300;12.394;2023-05-07T03:43:20;20.33;;;13.93;;
25327;SDS011;13279;51.300;12.394;2023-05-07T03:46:12;20.03;;;13.47;;
25327;SDS011;13279;51.300;12.394;2023-05-07T03:48:57;19.97;;;13.47;;
25327;SDS011;13279;51.300;12.394;2023-05-07T03:51:35;26.93;;;14.27;;
25327;SDS011;13279;51.300;12.394;2023-05-07T03:54:20;22.63;;;14.60;;
25327;SDS011;13279;51.300;12.394;2023-05-07T03:57:12;23.10;;;13.83;;
25327;SDS011;13279;51.300;12.394;2023-05-07T04:00:13;22.27;;;13.63;;
25327;SDS011;13279;51.300;12.394;2023-05-07T04:03:11;21.10;;;13.03;;
25327;SDS011;13279;51.300;12.394;2023-05-07T04:06:15;24.17;;;14.20;;
25327;SDS011;13279;51.300;12.394;2023-05-07T04:08:57;23.50;;;13.80;;
25327;SDS011;13279;51.300;12.394;2023-05-07T04:11:39;21.83;;;13.93;;
25327;SDS011;13279;51.300;12.394;2023-05-07T04:14:27;20.87;;;12.90;;
25327;SDS011;13279;51.300;12.394;2023-05-07T04:17:25;22.70;;;13.43;;
25327;SDS011;13279;51.300;12.394;2023-05-07T04:19:55;20.83;;;14.27;;
25327;SDS011;13279;51.300;12.394;2023-05-07T04:22:38;21.33;;;12.97;;
25327;SDS011;13279;51.300;12.394;2023-05-07T04:25:11;21.27;;;13.60;;
25327;SDS011;13279;51.300;12.394;2023-05-07T04:27:46;22.90;;;14.47;;
25327;SDS011;13279;51.300;12.394;2023-05-07T04:30:32;20.80;;;13.27;;
25327;SDS011;13279;51.300;12.394;2023-05-07T04:33:05;23.17;;;13.30;;
25327;SDS011;13279;51.300;12.394;2023-05-07T04:39:06;23.90;;;13.77;;
25327;SDS011;13279;51.300;12.394;2023-05-07T04:41:42;18.87;;;12.40;;
25327;SDS011;13279;51.300;12.394;2023-05-07T04:44:40;17.70;;;12.53;;
25327;SDS011;13279;51.300;12.394;2023-05-07T04:47:20;20.73;;;13.40;;
25327;SDS011;13279;51.300;12.394;2023-05-07T04:50:18;21.30;;;12.17;;
25327;SDS011;13279;51.300;12.394;2023-05-07T04:53:27;21.73;;;12.03;;
25327;SDS011;13279;51.300;12.394;2023-05-07T04:56:49;20.90;;;12.57;;
25327;SDS011;13279;51.300;12.394;2023-05-07T04:59:36;21.20;;;13.10;;
25327;SDS011;13279;51.300;12.394;2023-05-07T05:02:24;20.80;;;12.63;;
25327;SDS011;13279;51.300;12.394;2023-05-07T05:05:09;20.23;;;13.67;;
25327;SDS011;13279;51.300;12.394;2023-05-07T05:08:02;23.27;;;12.67;;
25327;SDS011;13279;51.300;12.394;2023-05-07T05:10:49;19.47;;;12.13;;
25327;SDS011;13279;51.300;12.394;2023-05-07T05:13:28;22.60;;;12.30;;
25327;SDS011;13279;51.300;12.394;2023-05-07T05:16:12;18.10;;;12.40;;
25327;SDS011;13279;51.300;12.394;2023-05-07T05:19:24;20.67;;;13.57;;
25327;SDS011;13279;51.300;12.394;2023-05-07T05:22:20;16.83;;;11.43;;
25327;SDS011;13279;51.300;12.394;2023-05-07T05:24:57;19.03;;;12.23;;
25327;SDS011;13279;51.300;12.394;2023-05-07T05:31:05;18.23;;;10.73;;
25327;SDS011;13279;51.300;12.394;2023-05-07T05:33:59;16.70;;;11.10;;
25327;SDS011;13279;51.300;12.394;2023-05-07T05:36:58;15.40;;;9.40;;
25327;SDS011;13279;51.300;12.394;2023-05-07T05:39:29;16.20;;;8.87;;
25327;SDS011;13279;51.300;12.394;2023-05-07T05:42:11;12.90;;;8.63;;
25327;SDS011;13279;51.300;12.394;2023-05-07T05:44:47;18.00;;;8.83;;
25327;SDS011;13279;51.300;12.394;2023-05-07T05:47:27;13.37;;;8.50;;
25327;SDS011;13279;51.300;12.394;2023-05-07T05:50:02;14.13;;;9.00;;
25327;SDS011;13279;51.300;12.394;2023-05-07T05:52:59;14.17;;;9.10;;
25327;SDS011;13279;51.300;12.394;2023-05-07T05:55:47;15.30;;;9.67;;
25327;SDS011;13279;51.300;12.394;2023-05-07T05:58:22;13.50;;;8.97;;
25327;SDS011;13279;51.300;12.394;2023-05-07T06:01:04;13.23;;;9.30;;
25327;SDS011;13279;51.300;12.394;2023-05-07T06:03:55;13.67;;;8.90;;
25327;SDS011;13279;51.300;12.394;2023-05-07T06:06:33;17.40;;;10.73;;
25327;SDS011;13279;51.300;12.394;2023-05-07T06:09:12;13.90;;;9.87;;
25327;SDS011;13279;51.300;12.394;2023-05-07T06:11:52;13.60;;;9.43;;
25327;SDS011;13279;51.300;12.394;2023-05-07T06:14:36;14.17;;;9.47;;
25327;SDS011;13279;51.300;12.394;2023-05-07T06:17:26;14.93;;;9.07;;
25327;SDS011;13279;51.300;12.394;2023-05-07T06:20:15;14.67;;;8.93;;
25327;SDS011;13279;51.300;12.394;2023-05-07T06:22:55;14.80;;;9.87;;
25327;SDS011;13279;51.300;12.394;2023-05-07T06:28:59;13.47;;;9.13;;
25327;SDS011;13279;51.300;12.394;2023-05-07T06:31:40;15.13;;;9.63;;
25327;SDS011;13279;51.300;12.394;2023-05-07T06:34:37;16.27;;;9.03;;
25327;SDS011;13279;51.300;12.394;2023-05-07T06:37:20;15.70;;;9.73;;
25327;SDS011;13279;51.300;12.394;2023-05-07T06:40:06;16.97;;;9.73;;
25327;SDS011;13279;51.300;12.394;2023-05-07T06:43:00;13.53;;;9.13;;
25327;SDS011;13279;51.300;12.394;2023-05-07T06:45:53;13.67;;;10.10;;
25327;SDS011;13279;51.300;12.394;2023-05-07T06:48:44;15.63;;;9.30;;
25327;SDS011;13279;51.300;12.394;2023-05-07T06:51:25;12.97;;;9.10;;
25327;SDS011;13279;51.300;12.394;2023-05-07T06:54:06;14.23;;;9.37;;
25327;SDS011;13279;51.300;12.394;2023-05-07T06:56:46;16.47;;;9.77;;
25327;SDS011;13279;51.300;12.394;2023-05-07T06:59:23;16.97;;;9.63;;
25327;SDS011;13279;51.300;12.394;2023-05-07T07:02:14;13.20;;;9.10;;
25327;SDS011;13279;51.300;12.394;2023-05-07T07:04:53;13.90;;;10.10;;
25327;SDS011;13279;51.300;12.394;2023-05-07T07:07:23;13.27;;;8.83;;
25327;SDS011;13279;51.300;12.394;2023-05-07T07:09:54;13.10;;;9.17;;
25327;SDS011;13279;51.300;12.394;2023-05-07T07:12:38;12.53;;;8.37;;
25327;SDS011;13279;51.300;12.394;2023-05-07T07:15:20;12.83;;;8.30;;
25327;SDS011;13279;51.300;12.394;2023-05-07T07:18:05;12.27;;;8.80;;
25327;SDS011;13279;51.300;12.394;2023-05-07T07:20:52;15.07;;;8.80;;
25327;SDS011;13279;51.300;12.394;2023-05-07T07:23:52;14.13;;;8.73;;
25327;SDS011;13279;51.300;12.394;2023-05-07T07:26:51;11.57;;;8.23;;
25327;SDS011;13279;51.300;12.394;2023-05-07T07:29:38;11.03;;;8.03;;
25327;SDS011;13279;51.300;12.394;2023-05-07T07:33:08;11.10;;;8.03;;
25327;SDS011;13279;51.300;12.394;2023-05-07T07:35:46;10.67;;;8.10;;
25327;SDS011;13279;51.300;12.394;2023-05-07T07:38:20;9.50;;;7.37;;
25327;SDS011;13279;51.300;12.394;2023-05-07T07:40:53;9.60;;;7.60;;
25327;SDS011;13279;51.300;12.394;2023-05-07T07:43:27;11.27;;;8.27;;
25327;SDS011;13279;51.300;12.394;2023-05-07T07:45:55;11.93;;;7.53;;
25327;SDS011;13279;51.300;12.394;2023-05-07T07:48:26;11.30;;;7.83;;
25327;SDS011;13279;51.300;12.394;2023-05-07T07:50:55;9.70;;;7.30;;
25327;SDS011;13279;51.300;12.394;2023-05-07T07:53:23;11.13;;;7.30;;
25327;SDS011;13279;51.300;12.394;2023-05-07T07:55:51;9.60;;;7.13;;
25327;SDS011;13279;51.300;12.394;2023-05-07T07:58:21;11.27;;;7.33;;
25327;SDS011;13279;51.300;12.394;2023-05-07T08:00:51;9.83;;;7.57;;
25327;SDS011;13279;51.300;12.394;2023-05-07T08:03:22;8.97;;;6.63;;
25327;SDS011;13279;51.300;12.394;2023-05-07T08:05:56;7.83;;;6.47;;
25327;SDS011;13279;51.300;12.394;2023-05-07T08:08:28;10.47;;;7.13;;
25327;SDS011;13279;51.300;12.394;2023-05-07T08:10:57;8.53;;;7.10;;
25327;SDS011;13279;51.300;12.394;2023-05-07T08:13:30;7.87;;;6.50;;
25327;SDS011;13279;51.300;12.394;2023-05-07T08:15:59;11.00;;;6.10;;
25327;SDS011;13279;51.300;12.394;2023-05-07T08:18:26;6.60;;;5.73;;
25327;SDS011;13279;51.300;12.394;2023-05-07T08:21:01;6.47;;;5.27;;
25327;SDS011;13279;51.300;12.394;2023-05-07T08:23:30;7.77;;;5.27;;
25327;SDS011;13279;51.300;12.394;2023-05-07T08:26:00;6.77;;;5.50;;
25327;SDS011;13279;51.300;12.394;2023-05-07T08:28:44;7.80;;;5.37;;
25327;SDS011;13279;51.300;12.394;2023-05-07T08:31:30;6.87;;;5.60;;
25327;SDS011;13279;51.300;12.394;2023-05-07T08:34:07;6.20;;;5.30;;
25327;SDS011;13279;51.300;12.394;2023-05-07T08:36:44;7.80;;;5.50;;
25327;SDS011;13279;51.300;12.394;2023-05-07T08:39:29;6.83;;;5.20;;
25327;SDS011;13279;51.300;12.394;2023-05-07T08:42:04;6.53;;;4.80;;
25327;SDS011;13279;51.300;12.394;2023-05-07T08:44:48;5.63;;;5.13;;
25327;SDS011;13279;51.300;12.394;2023-05-07T08:47:49;8.13;;;5.33;;
25327;SDS011;13279;51.300;12.394;2023-05-07T08:50:24;6.13;;;4.97;;
25327;SDS011;13279;51.300;12.394;2023-05-07T08:53:05;6.80;;;5.43;;
25327;SDS011;13279;51.300;12.394;2023-05-07T08:55:44;6.33;;;5.63;;
25327;SDS011;13279;51.300;12.394;2023-05-07T08:58:25;6.03;;;5.00;;
25327;SDS011;13279;51.300;12.394;2023-05-07T09:01:06;6.57;;;5.33;;
25327;SDS011;13279;51.300;12.394;2023-05-07T09:03:55;5.73;;;5.13;;
25327;SDS011;13279;51.300;12.394;2023-05-07T09:06:32;7.80;;;5.10;;
25327;SDS011;13279;51.300;12.394;2023-05-07T09:09:11;6.90;;;5.50;;
25327;SDS011;13279;51.300;12.394;2023-05-07T09:11:56;6.13;;;4.70;;
25327;SDS011;13279;51.300;12.394;2023-05-07T09:14:31;6.53;;;4.90;;
25327;SDS011;13279;51.300;12.394;2023-05-07T09:17:04;6.90;;;4.87;;
25327;SDS011;13279;51.300;12.394;2023-05-07T09:19:43;6.57;;;5.20;;
25327;SDS011;13279;51.300;12.394;2023-05-07T09:22:20;6.13;;;5.43;;
25327;SDS011;13279;51.300;12.394;2023-05-07T09:24:57;6.97;;;5.37;;
25327;SDS011;13279;51.300;12.394;2023-05-07T09:27:26;6.10;;;5.37;;
25327;SDS011;13279;51.300;12.394;2023-05-07T09:29:55;5.77;;;5.17;;
25327;SDS011;13279;51.300;12.394;2023-05-07T09:32:24;8.70;;;5.80;;
25327;SDS011;13279;51.300;12.394;2023-05-07T09:34:53;6.97;;;5.87;;
25327;SDS011;13279;51.300;12.394;2023-05-07T09:37:23;11.43;;;5.47;;
25327;SDS011;13279;51.300;12.394;2023-05-07T09:39:57;5.87;;;5.10;;
25327;SDS011;13279;51.300;12.394;2023-05-07T09:42:28;6.10;;;5.50;;
25327;SDS011;13279;51.300;12.394;2023-05-07T09:44:59;5.97;;;4.60;;
25327;SDS011;13279;51.300;12.394;2023-05-07T09:47:33;5.60;;;4.73;;
25327;SDS011;13279;51.300;12.394;2023-05-07T09:50:30;5.40;;;4.87;;
25327;SDS011;13279;51.300;12.394;2023-05-07T09:53:32;6.73;;;5.03;;
25327;SDS011;13279;51.300;12.394;2023-05-07T09:56:44;6.37;;;5.00;;
25327;SDS011;13279;51.300;12.394;2023-05-07T09:59:45;6.27;;;4.90;;
25327;SDS011;13279;51.300;12.394;2023-05-07T10:03:10;4.83;;;4.43;;
25327;SDS011;13279;51.300;12.394;2023-05-07T10:05:58;7.37;;;5.27;;
25327;SDS011;13279;51.300;12.394;2023-05-07T10:08:47;6.87;;;5.70;;
25327;SDS011;13279;51.300;12.394;2023-05-07T10:11:25;6.23;;;5.23;;
25327;SDS011;13279;51.300;12.394;2023-05-07T10:13:54;7.53;;;4.87;;
25327;SDS011;13279;51.300;12.394;2023-05-07T10:16:22;6.40;;;5.40;;
25327;SDS011;13279;51.300;12.394;2023-05-07T10:18:53;7.37;;;5.00;;
25327;SDS011;13279;51.300;12.394;2023-05-07T10:21:23;6.87;;;4.40;;
25327;SDS011;13279;51.300;12.394;2023-05-07T10:23:58;4.50;;;4.03;;
25327;SDS011;13279;51.300;12.394;2023-05-07T10:26:29;4.70;;;3.90;;
25327;SDS011;13279;51.300;12.394;2023-05-07T10:29:01;5.03;;;4.53;;
25327;SDS011;13279;51.300;12.394;2023-05-07T10:31:42;5.27;;;4.03;;
25327;SDS011;13279;51.300;12.394;2023-05-07T10:34:23;7.27;;;4.87;;
25327;SDS011;13279;51.300;12.394;2023-05-07T10:36:55;6.13;;;4.20;;
25327;SDS011;13279;51.300;12.394;2023-05-07T10:39:23;4.60;;;4.20;;
25327;SDS011;13279;51.300;12.394;2023-05-07T10:41:52;4.67;;;4.07;;
25327;SDS011;13279;51.300;12.394;2023-05-07T10:44:27;4.33;;;3.90;;
25327;SDS011;13279;51.300;12.394;2023-05-07T10:47:06;4.97;;;3.73;;
25327;SDS011;13279;51.300;12.394;2023-05-07T10:49:37;5.23;;;4.23;;
25327;SDS011;13279;51.300;12.394;2023-05-07T10:52:41;4.60;;;4.03;;
25327;SDS011;13279;51.300;12.394;2023-05-07T10:55:20;9.80;;;3.83;;
25327;SDS011;13279;51.300;12.394;2023-05-07T10:58:22;4.67;;;3.60;;
25327;SDS011;13279;51.300;12.394;2023-05-07T11:00:58;4.53;;;3.60;;
25327;SDS011;13279;51.300;12.394;2023-05-07T11:03:32;3.80;;;3.20;;
25327;SDS011;13279;51.300;12.394;2023-05-07T11:06:09;6.17;;;4.50;;
25327;SDS011;13279;51.300;12.394;2023-05-07T11:08:56;5.60;;;5.10;;
25327;SDS011;13279;51.300;12.394;2023-05-07T11:11:46;6.33;;;5.20;;
25327;SDS011;13279;51.300;12.394;2023-05-07T11:14:42;4.73;;;4.23;;
25327;SDS011;13279;51.300;12.394;2023-05-07T11:17:20;6.60;;;5.00;;
25327;SDS011;13279;51.300;12.394;2023-05-07T11:19:56;4.70;;;4.20;;
25327;SDS011;13279;51.300;12.394;2023-05-07T11:22:53;6.30;;;4.47;;
25327;SDS011;13279;51.300;12.394;2023-05-07T11:25:32;5.13;;;3.90;;
25327;SDS011;13279;51.300;12.394;2023-05-07T11:28:21;4.13;;;3.73;;
25327;SDS011;13279;51.300;12.394;2023-05-07T11:31:00;4.67;;;3.47;;
25327;SDS011;13279;51.300;12.394;2023-05-07T11:33:30;6.50;;;4.00;;
25327;SDS011;13279;51.300;12.394;2023-05-07T11:36:02;4.63;;;4.20;;
25327;SDS011;13279;51.300;12.394;2023-05-07T11:38:36;4.30;;;3.90;;
25327;SDS011;13279;51.300;12.394;2023-05-07T11:41:05;4.43;;;3.90;;
25327;SDS011;13279;51.300;12.394;2023-05-07T11:43:34;4.67;;;4.27;;
25327;SDS011;13279;51.300;12.394;2023-05-07T11:46:04;4.83;;;4.33;;
25327;SDS011;13279;51.300;12.394;2023-05-07T11:49:05;7.40;;;4.63;;
25327;SDS011;13279;51.300;12.394;2023-05-07T11:51:44;8.60;;;4.77;;
25327;SDS011;13279;51.300;12.394;2023-05-07T11:54:17;8.57;;;5.87;;
25327;SDS011;13279;51.300;12.394;2023-05-07T11:56:49;6.83;;;5.10;;
25327;SDS011;13279;51.300;12.394;2023-05-07T12:00:09;7.57;;;5.53;;
25327;SDS011;13279;51.300;12.394;2023-05-07T12:03:22;6.87;;;5.67;;
25327;SDS011;13279;51.300;12.394;2023-05-07T12:06:18;8.77;;;5.50;;
25327;SDS011;13279;51.300;12.394;2023-05-07T12:09:20;7.50;;;5.30;;
25327;SDS011;13279;51.300;12.394;2023-05-07T12:12:10;6.73;;;5.23;;
25327;SDS011;13279;51.300;12.394;2023-05-07T12:14:58;5.83;;;5.00;;
25327;SDS011;13279;51.300;12.394;2023-05-07T12:17:42;6.97;;;4.87;;
25327;SDS011;13279;51.300;12.394;2023-05-07T12:20:33;7.23;;;5.50;;
25327;SDS011;13279;51.300;12.394;2023-05-07T12:23:34;8.27;;;5.53;;
25327;SDS011;13279;51.300;12.394;2023-05-07T12:26:10;6.67;;;4.93;;
25327;SDS011;13279;51.300;12.394;2023-05-07T12:28:57;6.30;;;4.53;;
25327;SDS011;13279;51.300;12.394;2023-05-07T12:31:36;6.00;;;4.90;;
25327;SDS011;13279;51.300;12.394;2023-05-07T12:34:27;6.00;;;5.07;;
25327;SDS011;13279;51.300;12.394;2023-05-07T12:40:37;4.60;;;4.17;;
25327;SDS011;13279;51.300;12.394;2023-05-07T12:43:30;4.57;;;4.17;;
25327;SDS011;13279;51.300;12.394;2023-05-07T12:46:12;6.30;;;4.90;;
25327;SDS011;13279;51.300;12.394;2023-05-07T12:48:55;6.40;;;4.93;;
25327;SDS011;13279;51.300;12.394;2023-05-07T12:51:48;7.13;;;4.73;;
25327;SDS011;13279;51.300;12.394;2023-05-07T12:54:58;5.90;;;5.10;;
25327;SDS011;13279;51.300;12.394;2023-05-07T13:01:30;5.80;;;4.73;;
25327;SDS011;13279;51.300;12.394;2023-05-07T13:04:00;6.07;;;5.10;;
25327;SDS011;13279;51.300;12.394;2023-05-07T13:06:29;6.03;;;5.07;;
25327;SDS011;13279;51.300;12.394;2023-05-07T13:08:57;7.90;;;4.97;;
25327;SDS011;13279;51.300;12.394;2023-05-07T13:11:25;6.43;;;5.07;;
25327;SDS011;13279;51.300;12.394;2023-05-07T13:13:57;4.70;;;4.20;;
25327;SDS011;13279;51.300;12.394;2023-05-07T13:16:24;4.80;;;4.30;;
25327;SDS011;13279;51.300;12.394;2023-05-07T13:18:51;9.40;;;4.87;;
25327;SDS011;13279;51.300;12.394;2023-05-07T13:21:18;5.30;;;4.50;;
25327;SDS011;13279;51.300;12.394;2023-05-07T13:23:46;5.23;;;4.50;;
25327;SDS011;13279;51.300;12.394;2023-05-07T13:26:14;5.67;;;4.53;;
25327;SDS011;13279;51.300;12.394;2023-05-07T13:28:44;4.93;;;4.13;;
25327;SDS011;13279;51.300;12.394;2023-05-07T13:31:13;7.40;;;4.70;;
25327;SDS011;13279;51.300;12.394;2023-05-07T13:33:41;5.10;;;4.60;;
25327;SDS011;13279;51.300;12.394;2023-05-07T13:36:08;4.73;;;4.30;;
25327;SDS011;13279;51.300;12.394;2023-05-07T13:38:38;4.90;;;4.17;;
25327;SDS011;13279;51.300;12.394;2023-05-07T13:41:07;4.00;;;3.60;;
25327;SDS011;13279;51.300;12.394;2023-05-07T13:43:35;4.20;;;3.80;;
25327;SDS011;13279;51.300;12.394;2023-05-07T13:49:03;8.33;;;3.80;;
25327;SDS011;13279;51.300;12.394;2023-05-07T13:51:30;5.17;;;4.23;;
25327;SDS011;13279;51.300;12.394;2023-05-07T13:53:58;4.43;;;4.03;;
25327;SDS011;13279;51.300;12.394;2023-05-07T13:56:25;4.40;;;3.50;;
25327;SDS011;13279;51.300;12.394;2023-05-07T13:58:54;5.60;;;3.63;;
25327;SDS011;13279;51.300;12.394;2023-05-07T14:01:22;4.40;;;4.00;;
25327;SDS011;13279;51.300;12.394;2023-05-07T14:03:52;4.50;;;3.20;;
25327;SDS011;13279;51.300;12.394;2023-05-07T14:06:25;6.40;;;4.07;;
25327;SDS011;13279;51.300;12.394;2023-05-07T14:08:52;3.50;;;3.20;;
25327;SDS011;13279;51.300;12.394;2023-05-07T14:11:20;3.30;;;3.00;;
25327;SDS011;13279;51.300;12.394;2023-05-07T14:13:47;3.60;;;3.20;;
25327;SDS011;13279;51.300;12.394;2023-05-07T14:16:15;3.50;;;3.20;;
25327;SDS011;13279;51.300;12.394;2023-05-07T14:18:45;3.97;;;3.57;;
25327;SDS011;13279;51.300;12.394;2023-05-07T14:21:14;3.90;;;3.27;;
25327;SDS011;13279;51.300;12.394;2023-05-07T14:23:42;3.80;;;3.27;;
25327;SDS011;13279;51.300;12.394;2023-05-07T14:26:09;2.70;;;2.50;;
25327;SDS011;13279;51.300;12.394;2023-05-07T14:28:37;3.30;;;3.00;;
25327;SDS011;13279;51.300;12.394;2023-05-07T14:31:05;3.03;;;2.77;;
25327;SDS011;13279;51.300;12.394;2023-05-07T14:33:33;7.17;;;3.13;;
25327;SDS011;13279;51.300;12.394;2023-05-07T14:36:02;3.67;;;2.50;;
25327;SDS011;13279;51.300;12.394;2023-05-07T14:38:39;7.40;;;3.40;;
25327;SDS011;13279;51.300;12.394;2023-05-07T14:41:07;8.83;;;3.47;;
25327;SDS011;13279;51.300;12.394;2023-05-07T14:43:36;3.30;;;3.00;;
25327;SDS011;13279;51.300;12.394;2023-05-07T14:46:04;5.10;;;3.03;;
25327;SDS011;13279;51.300;12.394;2023-05-07T14:48:32;3.93;;;2.90;;
25327;SDS011;13279;51.300;12.394;2023-05-07T14:51:02;5.70;;;3.17;;
25327;SDS011;13279;51.300;12.394;2023-05-07T14:53:32;3.67;;;3.33;;
25327;SDS011;13279;51.300;12.394;2023-05-07T14:56:05;4.13;;;3.43;;
25327;SDS011;13279;51.300;12.394;2023-05-07T14:58:33;4.03;;;2.90;;
25327;SDS011;13279;51.300;12.394;2023-05-07T15:01:34;3.63;;;3.33;;
25327;SDS011;13279;51.300;12.394;2023-05-07T15:03:53;4.20;;;3.13;;
25327;SDS011;13279;51.300;12.394;2023-05-07T15:06:25;2.90;;;2.60;;
25327;SDS011;13279;51.300;12.394;2023-05-07T15:08:53;3.17;;;2.97;;
25327;SDS011;13279;51.300;12.394;2023-05-07T15:11:22;3.37;;;2.63;;
25327;SDS011;13279;51.300;12.394;2023-05-07T15:13:51;4.17;;;3.10;;
25327;SDS011;13279;51.300;12.394;2023-05-07T15:16:19;3.57;;;3.03;;
25327;SDS011;13279;51.300;12.394;2023-05-07T15:18:50;3.83;;;2.23;;
25327;SDS011;13279;51.300;12.394;2023-05-07T15:21:18;2.63;;;2.43;;
25327;SDS011;13279;51.300;12.394;2023-05-07T15:23:46;7.87;;;2.60;;
25327;SDS011;13279;51.300;12.394;2023-05-07T15:26:13;4.37;;;2.40;;
25327;SDS011;13279;51.300;12.394;2023-05-07T15:28:42;2.87;;;2.40;;
25327;SDS011;13279;51.300;12.394;2023-05-07T15:31:10;3.10;;;2.67;;
25327;SDS011;13279;51.300;12.394;2023-05-07T15:33:37;2.93;;;2.70;;
25327;SDS011;13279;51.300;12.394;2023-05-07T15:36:06;3.93;;;3.23;;
25327;SDS011;13279;51.300;12.394;2023-05-07T15:38:34;3.47;;;3.07;;
25327;SDS011;13279;51.300;12.394;2023-05-07T15:41:01;6.20;;;3.10;;
25327;SDS011;13279;51.300;12.394;2023-05-07T15:43:29;3.67;;;3.37;;
25327;SDS011;13279;51.300;12.394;2023-05-07T15:45:58;2.90;;;2.70;;
25327;SDS011;13279;51.300;12.394;2023-05-07T15:48:25;3.47;;;3.10;;
25327;SDS011;13279;51.300;12.394;2023-05-07T15:50:53;3.17;;;2.93;;
25327;SDS011;13279;51.300;12.394;2023-05-07T15:53:20;3.60;;;3.30;;
25327;SDS011;13279;51.300;12.394;2023-05-07T15:55:48;3.90;;;3.60;;
25327;SDS011;13279;51.300;12.394;2023-05-07T15:58:15;4.70;;;3.67;;
25327;SDS011;13279;51.300;12.394;2023-05-07T16:00:44;4.73;;;3.60;;
25327;SDS011;13279;51.300;12.394;2023-05-07T16:03:13;4.03;;;3.63;;
25327;SDS011;13279;51.300;12.394;2023-05-07T16:05:40;3.97;;;3.60;;
25327;SDS011;13279;51.300;12.394;2023-05-07T16:08:08;6.30;;;3.73;;
25327;SDS011;13279;51.300;12.394;2023-05-07T16:10:35;5.03;;;3.93;;
25327;SDS011;13279;51.300;12.394;2023-05-07T16:13:03;3.80;;;3.50;;
25327;SDS011;13279;51.300;12.394;2023-05-07T16:15:30;4.40;;;3.67;;
25327;SDS011;13279;51.300;12.394;2023-05-07T16:17:57;4.80;;;4.00;;
25327;SDS011;13279;51.300;12.394;2023-05-07T16:20:27;5.47;;;4.47;;
25327;SDS011;13279;51.300;12.394;2023-05-07T16:22:56;5.27;;;3.93;;